sensor_id;sensor_type;location;lat;lon;timestamp;P1;durP1;ratioP1;P2;durP2;ratioP2
27539;SDS011;15906;52.046;4.724;2023-06-22T00:01:04;24.30;;;17.15;;
27539;SDS011;15906;52.046;4.724;2023-06-22T00:03:30;23.90;;;17.02;;
27539;SDS011;15906;52.046;4.724;2023-06-22T00:05:56;20.75;;;15.55;;
27539;SDS011;15906;52.046;4.724;2023-06-22T00:08:21;20.63;;;15.10;;
27539;SDS011;15906;52.046;4.724;2023-06-22T00:10:47;22.73;;;15.32;;
27539;SDS011;15906;52.046;4.724;2023-06-22T00:13:13;23.58;;;16.73;;
27539;SDS011;15906;52.046;4.724;2023-06-22T00:15:40;26.50;;;15.38;;
27539;SDS011;15906;52.046;4.724;2023-06-22T00:18:06;22.23;;;16.10;;
27539;SDS011;15906;52.046;4.724;2023-06-22T00:20:33;20.95;;;14.95;;
27539;SDS011;15906;52.046;4.724;2023-06-22T00:23:02;25.33;;;15.48;;
27539;SDS011;15906;52.046;4.724;2023-06-22T00:25:39;20.08;;;14.60;;
27539;SDS011;15906;52.046;4.724;2023-06-22T00:28:05;20.50;;;14.15;;
27539;SDS011;15906;52.046;4.724;2023-06-22T00:30:32;20.08;;;15.13;;
27539;SDS011;15906;52.046;4.724;2023-06-22T00:32:58;20.48;;;14.50;;
27539;SDS011;15906;52.046;4.724;2023-06-22T00:35:24;20.65;;;14.48;;
27539;SDS011;15906;52.046;4.724;2023-06-22T00:37:57;22.50;;;14.60;;
27539;SDS011;15906;52.046;4.724;2023-06-22T00:40:28;18.90;;;14.70;;
27539;SDS011;15906;52.046;4.724;2023-06-22T00:42:57;20.45;;;16.15;;
27539;SDS011;15906;52.046;4.724;2023-06-22T00:45:24;21.20;;;15.50;;
27539;SDS011;15906;52.046;4.724;2023-06-22T00:47:53;22.70;;;15.75;;
27539;SDS011;15906;52.046;4.724;2023-06-22T00:50:22;21.77;;;16.25;;
27539;SDS011;15906;52.046;4.724;2023-06-22T00:52:53;20.98;;;15.68;;
27539;SDS011;15906;52.046;4.724;2023-06-22T00:55:22;22.02;;;14.93;;
27539;SDS011;15906;52.046;4.724;2023-06-22T00:57:48;21.63;;;16.45;;
27539;SDS011;15906;52.046;4.724;2023-06-22T01:00:17;24.63;;;16.13;;
27539;SDS011;15906;52.046;4.724;2023-06-22T01:02:44;25.27;;;17.80;;
27539;SDS011;15906;52.046;4.724;2023-06-22T01:05:12;27.13;;;18.85;;
27539;SDS011;15906;52.046;4.724;2023-06-22T01:10:44;25.95;;;17.80;;
27539;SDS011;15906;52.046;4.724;2023-06-22T01:13:26;24.08;;;16.70;;
27539;SDS011;15906;52.046;4.724;2023-06-22T01:15:55;23.23;;;17.40;;
27539;SDS011;15906;52.046;4.724;2023-06-22T01:18:22;26.38;;;18.80;;
27539;SDS011;15906;52.046;4.724;2023-06-22T01:20:54;28.55;;;19.30;;
27539;SDS011;15906;52.046;4.724;2023-06-22T01:23:26;25.65;;;19.38;;
27539;SDS011;15906;52.046;4.724;2023-06-22T01:26:17;22.25;;;17.25;;
27539;SDS011;15906;52.046;4.724;2023-06-22T01:28:50;24.67;;;18.08;;
27539;SDS011;15906;52.046;4.724;2023-06-22T01:31:20;26.83;;;19.65;;
27539;SDS011;15906;52.046;4.724;2023-06-22T01:33:50;24.90;;;18.30;;
27539;SDS011;15906;52.046;4.724;2023-06-22T01:36:18;28.10;;;22.17;;
27539;SDS011;15906;52.046;4.724;2023-06-22T01:38:45;29.35;;;21.95;;
27539;SDS011;15906;52.046;4.724;2023-06-22T01:41:12;28.30;;;20.48;;
27539;SDS011;15906;52.046;4.724;2023-06-22T01:43:38;29.35;;;22.27;;
27539;SDS011;15906;52.046;4.724;2023-06-22T01:46:04;33.83;;;23.63;;
27539;SDS011;15906;52.046;4.724;2023-06-22T01:48:30;28.83;;;21.25;;
27539;SDS011;15906;52.046;4.724;2023-06-22T01:50:57;29.52;;;22.05;;
27539;SDS011;15906;52.046;4.724;2023-06-22T01:53:23;29.60;;;21.23;;
27539;SDS011;15906;52.046;4.724;2023-06-22T01:55:49;28.88;;;20.98;;
27539;SDS011;15906;52.046;4.724;2023-06-22T01:58:15;30.63;;;21.92;;
27539;SDS011;15906;52.046;4.724;2023-06-22T02:00:43;32.17;;;22.25;;
27539;SDS011;15906;52.046;4.724;2023-06-22T02:03:14;30.92;;;21.60;;
27539;SDS011;15906;52.046;4.724;2023-06-22T02:05:48;30.42;;;22.20;;
27539;SDS011;15906;52.046;4.724;2023-06-22T02:08:20;31.35;;;21.90;;
27539;SDS011;15906;52.046;4.724;2023-06-22T02:10:53;32.22;;;22.05;;
27539;SDS011;15906;52.046;4.724;2023-06-22T02:13:20;31.10;;;21.75;;
27539;SDS011;15906;52.046;4.724;2023-06-22T02:15:46;31.83;;;21.77;;
27539;SDS011;15906;52.046;4.724;2023-06-22T02:18:13;30.33;;;22.63;;
27539;SDS011;15906;52.046;4.724;2023-06-22T02:20:39;30.80;;;22.13;;
27539;SDS011;15906;52.046;4.724;2023-06-22T02:23:05;30.02;;;21.60;;
27539;SDS011;15906;52.046;4.724;2023-06-22T02:25:32;28.25;;;20.05;;
27539;SDS011;15906;52.046;4.724;2023-06-22T02:27:58;32.15;;;21.70;;
27539;SDS011;15906;52.046;4.724;2023-06-22T02:30:24;28.50;;;20.40;;
27539;SDS011;15906;52.046;4.724;2023-06-22T02:32:49;25.17;;;18.77;;
27539;SDS011;15906;52.046;4.724;2023-06-22T02:35:23;27.95;;;20.45;;
27539;SDS011;15906;52.046;4.724;2023-06-22T02:37:56;30.85;;;20.45;;
27539;SDS011;15906;52.046;4.724;2023-06-22T02:40:25;32.45;;;22.00;;
27539;SDS011;15906;52.046;4.724;2023-06-22T02:42:51;29.77;;;21.60;;
27539;SDS011;15906;52.046;4.724;2023-06-22T02:45:17;28.55;;;20.00;;
27539;SDS011;15906;52.046;4.724;2023-06-22T02:47:43;29.60;;;20.17;;
27539;SDS011;15906;52.046;4.724;2023-06-22T02:50:08;32.33;;;22.73;;
27539;SDS011;15906;52.046;4.724;2023-06-22T02:52:34;31.02;;;23.00;;
27539;SDS011;15906;52.046;4.724;2023-06-22T02:55:00;34.80;;;23.13;;
27539;SDS011;15906;52.046;4.724;2023-06-22T02:57:25;32.63;;;22.48;;
27539;SDS011;15906;52.046;4.724;2023-06-22T02:59:51;30.10;;;21.23;;
27539;SDS011;15906;52.046;4.724;2023-06-22T03:02:16;31.70;;;22.67;;
27539;SDS011;15906;52.046;4.724;2023-06-22T03:04:43;31.50;;;22.02;;
27539;SDS011;15906;52.046;4.724;2023-06-22T03:07:08;29.15;;;22.20;;
27539;SDS011;15906;52.046;4.724;2023-06-22T03:09:34;31.77;;;23.45;;
27539;SDS011;15906;52.046;4.724;2023-06-22T03:12:00;31.60;;;22.10;;
27539;SDS011;15906;52.046;4.724;2023-06-22T03:14:27;31.13;;;22.25;;
27539;SDS011;15906;52.046;4.724;2023-06-22T03:16:52;30.83;;;21.42;;
27539;SDS011;15906;52.046;4.724;2023-06-22T03:19:18;29.75;;;21.02;;
27539;SDS011;15906;52.046;4.724;2023-06-22T03:21:44;27.50;;;19.83;;
27539;SDS011;15906;52.046;4.724;2023-06-22T03:24:10;29.60;;;21.30;;
27539;SDS011;15906;52.046;4.724;2023-06-22T03:26:35;29.13;;;21.85;;
27539;SDS011;15906;52.046;4.724;2023-06-22T03:29:01;28.38;;;20.00;;
27539;SDS011;15906;52.046;4.724;2023-06-22T03:31:26;27.48;;;21.15;;
27539;SDS011;15906;52.046;4.724;2023-06-22T03:33:52;32.67;;;21.98;;
27539;SDS011;15906;52.046;4.724;2023-06-22T03:36:17;29.67;;;20.90;;
27539;SDS011;15906;52.046;4.724;2023-06-22T03:38:47;35.92;;;25.77;;
27539;SDS011;15906;52.046;4.724;2023-06-22T03:41:14;35.00;;;25.33;;
27539;SDS011;15906;52.046;4.724;2023-06-22T03:43:40;31.27;;;23.02;;
27539;SDS011;15906;52.046;4.724;2023-06-22T03:46:06;32.58;;;21.38;;
27539;SDS011;15906;52.046;4.724;2023-06-22T03:48:32;33.80;;;23.02;;
27539;SDS011;15906;52.046;4.724;2023-06-22T03:50:59;30.40;;;22.90;;
27539;SDS011;15906;52.046;4.724;2023-06-22T03:53:25;35.38;;;24.08;;
27539;SDS011;15906;52.046;4.724;2023-06-22T03:55:51;38.25;;;24.30;;
27539;SDS011;15906;52.046;4.724;2023-06-22T03:58:18;34.95;;;25.02;;
27539;SDS011;15906;52.046;4.724;2023-06-22T04:00:48;35.65;;;26.38;;
27539;SDS011;15906;52.046;4.724;2023-06-22T04:03:14;35.42;;;25.25;;
27539;SDS011;15906;52.046;4.724;2023-06-22T04:05:40;33.50;;;22.15;;
27539;SDS011;15906;52.046;4.724;2023-06-22T04:08:06;35.53;;;23.90;;
27539;SDS011;15906;52.046;4.724;2023-06-22T04:10:32;39.10;;;25.45;;
27539;SDS011;15906;52.046;4.724;2023-06-22T04:12:58;36.80;;;24.67;;
27539;SDS011;15906;52.046;4.724;2023-06-22T04:15:23;40.88;;;27.20;;
27539;SDS011;15906;52.046;4.724;2023-06-22T04:17:49;41.10;;;26.80;;
27539;SDS011;15906;52.046;4.724;2023-06-22T04:20:14;33.78;;;23.38;;
27539;SDS011;15906;52.046;4.724;2023-06-22T04:22:40;33.85;;;24.45;;
27539;SDS011;15906;52.046;4.724;2023-06-22T04:25:06;30.85;;;23.02;;
27539;SDS011;15906;52.046;4.724;2023-06-22T04:27:34;32.35;;;22.83;;
27539;SDS011;15906;52.046;4.724;2023-06-22T04:30:06;37.00;;;24.27;;
27539;SDS011;15906;52.046;4.724;2023-06-22T04:32:33;36.78;;;23.52;;
27539;SDS011;15906;52.046;4.724;2023-06-22T04:35:02;37.05;;;25.40;;
27539;SDS011;15906;52.046;4.724;2023-06-22T04:37:31;31.08;;;22.55;;
27539;SDS011;15906;52.046;4.724;2023-06-22T04:39:57;28.10;;;20.48;;
27539;SDS011;15906;52.046;4.724;2023-06-22T04:42:24;36.17;;;23.65;;
27539;SDS011;15906;52.046;4.724;2023-06-22T04:44:53;30.58;;;20.58;;
27539;SDS011;15906;52.046;4.724;2023-06-22T04:47:19;31.95;;;21.63;;
27539;SDS011;15906;52.046;4.724;2023-06-22T04:49:44;33.67;;;23.27;;
27539;SDS011;15906;52.046;4.724;2023-06-22T04:52:11;32.67;;;22.13;;
27539;SDS011;15906;52.046;4.724;2023-06-22T04:54:38;34.08;;;22.90;;
27539;SDS011;15906;52.046;4.724;2023-06-22T04:57:06;32.40;;;21.98;;
27539;SDS011;15906;52.046;4.724;2023-06-22T04:59:35;30.88;;;22.00;;
27539;SDS011;15906;52.046;4.724;2023-06-22T05:02:01;29.40;;;21.00;;
27539;SDS011;15906;52.046;4.724;2023-06-22T05:04:28;26.67;;;19.52;;
27539;SDS011;15906;52.046;4.724;2023-06-22T05:06:56;35.92;;;22.17;;
27539;SDS011;15906;52.046;4.724;2023-06-22T05:09:22;29.35;;;20.33;;
27539;SDS011;15906;52.046;4.724;2023-06-22T05:11:49;30.35;;;21.05;;
27539;SDS011;15906;52.046;4.724;2023-06-22T05:14:15;28.35;;;19.70;;
27539;SDS011;15906;52.046;4.724;2023-06-22T05:16:41;28.30;;;20.90;;
27539;SDS011;15906;52.046;4.724;2023-06-22T05:19:07;32.25;;;21.63;;
27539;SDS011;15906;52.046;4.724;2023-06-22T05:21:33;36.75;;;23.88;;
27539;SDS011;15906;52.046;4.724;2023-06-22T05:23:59;33.08;;;21.88;;
27539;SDS011;15906;52.046;4.724;2023-06-22T05:26:27;35.13;;;22.90;;
27539;SDS011;15906;52.046;4.724;2023-06-22T05:28:52;29.02;;;21.90;;
27539;SDS011;15906;52.046;4.724;2023-06-22T05:31:19;31.98;;;23.13;;
27539;SDS011;15906;52.046;4.724;2023-06-22T05:33:45;31.88;;;23.00;;
27539;SDS011;15906;52.046;4.724;2023-06-22T05:36:12;32.58;;;23.65;;
27539;SDS011;15906;52.046;4.724;2023-06-22T05:38:38;33.80;;;22.63;;
27539;SDS011;15906;52.046;4.724;2023-06-22T05:41:04;30.70;;;22.77;;
27539;SDS011;15906;52.046;4.724;2023-06-22T05:43:29;28.20;;;21.23;;
27539;SDS011;15906;52.046;4.724;2023-06-22T05:45:55;29.15;;;21.77;;
27539;SDS011;15906;52.046;4.724;2023-06-22T05:48:21;29.15;;;20.52;;
27539;SDS011;15906;52.046;4.724;2023-06-22T05:50:47;33.15;;;22.13;;
27539;SDS011;15906;52.046;4.724;2023-06-22T05:53:12;30.48;;;22.05;;
27539;SDS011;15906;52.046;4.724;2023-06-22T05:55:38;32.50;;;21.77;;
27539;SDS011;15906;52.046;4.724;2023-06-22T05:58:03;30.20;;;22.08;;
27539;SDS011;15906;52.046;4.724;2023-06-22T06:00:29;28.85;;;21.60;;
27539;SDS011;15906;52.046;4.724;2023-06-22T06:02:55;29.17;;;21.13;;
27539;SDS011;15906;52.046;4.724;2023-06-22T06:05:21;28.38;;;20.25;;
27539;SDS011;15906;52.046;4.724;2023-06-22T06:07:48;27.50;;;18.80;;
27539;SDS011;15906;52.046;4.724;2023-06-22T06:10:13;25.75;;;20.08;;
27539;SDS011;15906;52.046;4.724;2023-06-22T06:12:39;28.20;;;20.52;;
27539;SDS011;15906;52.046;4.724;2023-06-22T06:15:05;30.73;;;20.00;;
27539;SDS011;15906;52.046;4.724;2023-06-22T06:17:30;26.15;;;20.48;;
27539;SDS011;15906;52.046;4.724;2023-06-22T06:19:56;28.15;;;20.98;;
27539;SDS011;15906;52.046;4.724;2023-06-22T06:22:23;30.83;;;20.85;;
27539;SDS011;15906;52.046;4.724;2023-06-22T06:24:49;25.70;;;19.48;;
27539;SDS011;15906;52.046;4.724;2023-06-22T06:27:15;28.38;;;19.48;;
27539;SDS011;15906;52.046;4.724;2023-06-22T06:29:43;25.08;;;19.70;;
27539;SDS011;15906;52.046;4.724;2023-06-22T06:32:10;25.33;;;19.88;;
27539;SDS011;15906;52.046;4.724;2023-06-22T06:34:36;26.80;;;19.10;;
27539;SDS011;15906;52.046;4.724;2023-06-22T06:37:01;27.73;;;19.08;;
27539;SDS011;15906;52.046;4.724;2023-06-22T06:39:27;25.38;;;18.23;;
27539;SDS011;15906;52.046;4.724;2023-06-22T06:41:52;26.15;;;18.65;;
27539;SDS011;15906;52.046;4.724;2023-06-22T06:44:18;22.67;;;18.42;;
27539;SDS011;15906;52.046;4.724;2023-06-22T06:46:44;23.35;;;17.60;;
27539;SDS011;15906;52.046;4.724;2023-06-22T06:49:09;18.80;;;15.98;;
27539;SDS011;15906;52.046;4.724;2023-06-22T06:51:35;20.92;;;15.45;;
27539;SDS011;15906;52.046;4.724;2023-06-22T06:54:01;23.50;;;16.17;;
27539;SDS011;15906;52.046;4.724;2023-06-22T06:56:28;20.70;;;15.90;;
27539;SDS011;15906;52.046;4.724;2023-06-22T06:58:54;19.67;;;14.32;;
27539;SDS011;15906;52.046;4.724;2023-06-22T07:01:20;19.63;;;15.07;;
27539;SDS011;15906;52.046;4.724;2023-06-22T07:03:46;21.13;;;14.68;;
27539;SDS011;15906;52.046;4.724;2023-06-22T07:06:11;18.92;;;13.85;;
27539;SDS011;15906;52.046;4.724;2023-06-22T07:08:38;19.67;;;12.95;;
27539;SDS011;15906;52.046;4.724;2023-06-22T07:11:04;15.02;;;12.73;;
27539;SDS011;15906;52.046;4.724;2023-06-22T07:13:30;17.60;;;13.05;;
27539;SDS011;15906;52.046;4.724;2023-06-22T07:15:56;16.00;;;13.50;;
27539;SDS011;15906;52.046;4.724;2023-06-22T07:18:21;18.27;;;13.18;;
27539;SDS011;15906;52.046;4.724;2023-06-22T07:20:47;18.55;;;14.60;;
27539;SDS011;15906;52.046;4.724;2023-06-22T07:23:12;16.30;;;13.32;;
27539;SDS011;15906;52.046;4.724;2023-06-22T07:25:38;20.83;;;15.60;;
27539;SDS011;15906;52.046;4.724;2023-06-22T07:28:04;20.98;;;13.80;;
27539;SDS011;15906;52.046;4.724;2023-06-22T07:30:32;18.55;;;14.60;;
27539;SDS011;15906;52.046;4.724;2023-06-22T07:32:58;16.95;;;14.07;;
27539;SDS011;15906;52.046;4.724;2023-06-22T07:35:28;15.95;;;12.75;;
27539;SDS011;15906;52.046;4.724;2023-06-22T07:37:54;16.83;;;13.80;;
27539;SDS011;15906;52.046;4.724;2023-06-22T07:40:20;15.18;;;12.68;;
27539;SDS011;15906;52.046;4.724;2023-06-22T07:42:46;15.43;;;12.52;;
27539;SDS011;15906;52.046;4.724;2023-06-22T07:45:13;14.70;;;11.45;;
27539;SDS011;15906;52.046;4.724;2023-06-22T07:47:38;12.45;;;9.40;;
27539;SDS011;15906;52.046;4.724;2023-06-22T07:50:04;14.80;;;10.32;;
27539;SDS011;15906;52.046;4.724;2023-06-22T07:52:31;14.80;;;10.95;;
27539;SDS011;15906;52.046;4.724;2023-06-22T07:54:56;16.85;;;13.55;;
27539;SDS011;15906;52.046;4.724;2023-06-22T07:57:22;19.70;;;14.20;;
27539;SDS011;15906;52.046;4.724;2023-06-22T07:59:47;20.02;;;16.67;;
27539;SDS011;15906;52.046;4.724;2023-06-22T08:02:13;20.52;;;17.27;;
27539;SDS011;15906;52.046;4.724;2023-06-22T08:04:39;20.63;;;17.45;;
27539;SDS011;15906;52.046;4.724;2023-06-22T08:07:06;22.95;;;17.73;;
27539;SDS011;15906;52.046;4.724;2023-06-22T08:09:31;22.23;;;18.77;;
27539;SDS011;15906;52.046;4.724;2023-06-22T08:11:58;25.38;;;18.65;;
27539;SDS011;15906;52.046;4.724;2023-06-22T08:14:25;24.38;;;20.15;;
27539;SDS011;15906;52.046;4.724;2023-06-22T08:16:51;25.70;;;20.92;;
27539;SDS011;15906;52.046;4.724;2023-06-22T08:19:16;25.23;;;22.60;;
27539;SDS011;15906;52.046;4.724;2023-06-22T08:21:42;25.80;;;20.55;;
27539;SDS011;15906;52.046;4.724;2023-06-22T08:24:08;27.95;;;22.40;;
27539;SDS011;15906;52.046;4.724;2023-06-22T08:26:34;28.52;;;23.95;;
27539;SDS011;15906;52.046;4.724;2023-06-22T08:29:04;27.80;;;22.63;;
27539;SDS011;15906;52.046;4.724;2023-06-22T08:31:30;28.80;;;24.88;;
27539;SDS011;15906;52.046;4.724;2023-06-22T08:33:58;27.65;;;22.50;;
27539;SDS011;15906;52.046;4.724;2023-06-22T08:36:23;29.55;;;22.30;;
27539;SDS011;15906;52.046;4.724;2023-06-22T08:38:49;22.67;;;19.10;;
27539;SDS011;15906;52.046;4.724;2023-06-22T08:41:16;22.50;;;18.77;;
27539;SDS011;15906;52.046;4.724;2023-06-22T08:43:42;24.13;;;19.63;;
27539;SDS011;15906;52.046;4.724;2023-06-22T08:46:09;24.17;;;18.75;;
27539;SDS011;15906;52.046;4.724;2023-06-22T08:48:35;22.88;;;19.23;;
27539;SDS011;15906;52.046;4.724;2023-06-22T08:51:01;23.55;;;19.88;;
27539;SDS011;15906;52.046;4.724;2023-06-22T08:53:27;22.63;;;19.75;;
27539;SDS011;15906;52.046;4.724;2023-06-22T08:55:53;21.45;;;16.90;;
27539;SDS011;15906;52.046;4.724;2023-06-22T08:58:18;21.42;;;17.13;;
27539;SDS011;15906;52.046;4.724;2023-06-22T09:00:45;20.52;;;15.95;;
27539;SDS011;15906;52.046;4.724;2023-06-22T09:03:10;20.23;;;15.68;;
27539;SDS011;15906;52.046;4.724;2023-06-22T09:05:37;22.05;;;17.25;;
27539;SDS011;15906;52.046;4.724;2023-06-22T09:08:02;16.88;;;15.07;;
27539;SDS011;15906;52.046;4.724;2023-06-22T09:10:28;19.27;;;16.23;;
27539;SDS011;15906;52.046;4.724;2023-06-22T09:12:54;16.85;;;14.93;;
27539;SDS011;15906;52.046;4.724;2023-06-22T09:15:19;20.73;;;13.98;;
27539;SDS011;15906;52.046;4.724;2023-06-22T09:17:45;17.33;;;14.05;;
27539;SDS011;15906;52.046;4.724;2023-06-22T09:20:11;18.50;;;15.07;;
27539;SDS011;15906;52.046;4.724;2023-06-22T09:22:37;15.05;;;13.52;;
27539;SDS011;15906;52.046;4.724;2023-06-22T09:25:02;16.13;;;13.35;;
27539;SDS011;15906;52.046;4.724;2023-06-22T09:27:29;14.75;;;13.10;;
27539;SDS011;15906;52.046;4.724;2023-06-22T09:29:55;18.50;;;15.68;;
27539;SDS011;15906;52.046;4.724;2023-06-22T09:32:23;17.83;;;14.27;;
27539;SDS011;15906;52.046;4.724;2023-06-22T09:34:49;19.63;;;15.77;;
27539;SDS011;15906;52.046;4.724;2023-06-22T09:37:14;19.45;;;14.05;;
27539;SDS011;15906;52.046;4.724;2023-06-22T09:39:40;19.20;;;13.43;;
27539;SDS011;15906;52.046;4.724;2023-06-22T09:42:05;15.73;;;13.25;;
27539;SDS011;15906;52.046;4.724;2023-06-22T09:44:31;14.48;;;12.95;;
27539;SDS011;15906;52.046;4.724;2023-06-22T09:46:57;17.52;;;14.65;;
27539;SDS011;15906;52.046;4.724;2023-06-22T09:49:22;19.63;;;15.25;;
27539;SDS011;15906;52.046;4.724;2023-06-22T09:51:48;17.40;;;14.45;;
27539;SDS011;15906;52.046;4.724;2023-06-22T09:54:14;19.50;;;14.95;;
27539;SDS011;15906;52.046;4.724;2023-06-22T09:56:40;16.23;;;12.90;;
27539;SDS011;15906;52.046;4.724;2023-06-22T09:59:05;19.08;;;14.20;;
27539;SDS011;15906;52.046;4.724;2023-06-22T10:01:31;18.77;;;16.30;;
27539;SDS011;15906;52.046;4.724;2023-06-22T10:03:56;21.52;;;17.95;;
27539;SDS011;15906;52.046;4.724;2023-06-22T10:06:23;18.70;;;16.80;;
27539;SDS011;15906;52.046;4.724;2023-06-22T10:08:50;25.35;;;20.45;;
27539;SDS011;15906;52.046;4.724;2023-06-22T10:11:16;21.42;;;15.90;;
27539;SDS011;15906;52.046;4.724;2023-06-22T10:13:42;18.13;;;15.75;;
27539;SDS011;15906;52.046;4.724;2023-06-22T10:16:07;17.00;;;15.15;;
27539;SDS011;15906;52.046;4.724;2023-06-22T10:18:33;21.27;;;18.80;;
27539;SDS011;15906;52.046;4.724;2023-06-22T10:20:59;25.13;;;20.25;;
27539;SDS011;15906;52.046;4.724;2023-06-22T10:23:24;27.52;;;22.55;;
27539;SDS011;15906;52.046;4.724;2023-06-22T10:25:50;23.25;;;20.55;;
27539;SDS011;15906;52.046;4.724;2023-06-22T10:28:16;22.05;;;19.75;;
27539;SDS011;15906;52.046;4.724;2023-06-22T10:30:42;24.25;;;20.80;;
27539;SDS011;15906;52.046;4.724;2023-06-22T10:33:08;21.55;;;19.13;;
27539;SDS011;15906;52.046;4.724;2023-06-22T10:35:34;25.23;;;21.75;;
27539;SDS011;15906;52.046;4.724;2023-06-22T10:38:02;29.45;;;21.80;;
27539;SDS011;15906;52.046;4.724;2023-06-22T10:40:28;25.42;;;20.08;;
27539;SDS011;15906;52.046;4.724;2023-06-22T10:42:54;22.13;;;19.80;;
27539;SDS011;15906;52.046;4.724;2023-06-22T10:45:19;24.83;;;20.05;;
27539;SDS011;15906;52.046;4.724;2023-06-22T10:47:45;25.15;;;21.38;;
27539;SDS011;15906;52.046;4.724;2023-06-22T10:50:10;24.05;;;19.95;;
27539;SDS011;15906;52.046;4.724;2023-06-22T10:52:36;24.50;;;20.40;;
27539;SDS011;15906;52.046;4.724;2023-06-22T10:55:02;23.10;;;19.30;;
27539;SDS011;15906;52.046;4.724;2023-06-22T10:57:28;22.30;;;17.98;;
27539;SDS011;15906;52.046;4.724;2023-06-22T10:59:54;23.00;;;18.20;;
27539;SDS011;15906;52.046;4.724;2023-06-22T11:02:19;23.10;;;17.50;;
27539;SDS011;15906;52.046;4.724;2023-06-22T11:04:45;21.50;;;16.65;;
27539;SDS011;15906;52.046;4.724;2023-06-22T11:07:12;22.98;;;16.55;;
27539;SDS011;15906;52.046;4.724;2023-06-22T11:09:38;22.92;;;15.90;;
27539;SDS011;15906;52.046;4.724;2023-06-22T11:12:04;24.20;;;16.35;;
27539;SDS011;15906;52.046;4.724;2023-06-22T11:14:30;20.15;;;14.80;;
27539;SDS011;15906;52.046;4.724;2023-06-22T11:16:56;17.20;;;13.50;;
27539;SDS011;15906;52.046;4.724;2023-06-22T11:19:22;22.75;;;16.30;;
27539;SDS011;15906;52.046;4.724;2023-06-22T11:21:47;19.88;;;16.75;;
27539;SDS011;15906;52.046;4.724;2023-06-22T11:24:13;20.80;;;15.13;;
27539;SDS011;15906;52.046;4.724;2023-06-22T11:26:38;21.55;;;17.42;;
27539;SDS011;15906;52.046;4.724;2023-06-22T11:29:04;27.60;;;21.50;;
27539;SDS011;15906;52.046;4.724;2023-06-22T11:31:30;25.98;;;21.80;;
27539;SDS011;15906;52.046;4.724;2023-06-22T11:33:57;27.08;;;23.00;;
27539;SDS011;15906;52.046;4.724;2023-06-22T11:36:22;29.98;;;22.85;;
27539;SDS011;15906;52.046;4.724;2023-06-22T11:38:48;27.20;;;22.17;;
27539;SDS011;15906;52.046;4.724;2023-06-22T11:41:14;28.83;;;21.73;;
27539;SDS011;15906;52.046;4.724;2023-06-22T11:43:39;33.67;;;22.08;;
27539;SDS011;15906;52.046;4.724;2023-06-22T11:46:05;27.92;;;22.35;;
27539;SDS011;15906;52.046;4.724;2023-06-22T11:48:30;24.88;;;20.58;;
27539;SDS011;15906;52.046;4.724;2023-06-22T11:50:56;33.15;;;23.80;;
27539;SDS011;15906;52.046;4.724;2023-06-22T11:53:23;26.10;;;22.00;;
27539;SDS011;15906;52.046;4.724;2023-06-22T11:55:50;25.83;;;21.52;;
27539;SDS011;15906;52.046;4.724;2023-06-22T11:58:15;30.73;;;24.77;;
27539;SDS011;15906;52.046;4.724;2023-06-22T12:00:41;29.25;;;22.30;;
27539;SDS011;15906;52.046;4.724;2023-06-22T12:03:06;30.08;;;21.92;;
27539;SDS011;15906;52.046;4.724;2023-06-22T12:05:32;30.23;;;23.80;;
27539;SDS011;15906;52.046;4.724;2023-06-22T12:07:58;30.50;;;23.65;;
27539;SDS011;15906;52.046;4.724;2023-06-22T12:10:25;28.83;;;23.98;;
27539;SDS011;15906;52.046;4.724;2023-06-22T12:12:51;35.03;;;26.00;;
27539;SDS011;15906;52.046;4.724;2023-06-22T12:15:16;32.70;;;25.00;;
27539;SDS011;15906;52.046;4.724;2023-06-22T12:17:42;30.83;;;23.95;;
27539;SDS011;15906;52.046;4.724;2023-06-22T12:20:08;37.38;;;26.60;;
27539;SDS011;15906;52.046;4.724;2023-06-22T12:22:34;36.58;;;27.70;;
27539;SDS011;15906;52.046;4.724;2023-06-22T12:25:00;33.70;;;26.02;;
27539;SDS011;15906;52.046;4.724;2023-06-22T12:27:26;35.03;;;27.27;;
27539;SDS011;15906;52.046;4.724;2023-06-22T12:29:52;34.55;;;27.58;;
27539;SDS011;15906;52.046;4.724;2023-06-22T12:32:17;38.92;;;29.75;;
27539;SDS011;15906;52.046;4.724;2023-06-22T12:34:43;34.80;;;28.65;;
27539;SDS011;15906;52.046;4.724;2023-06-22T12:37:09;35.83;;;29.48;;
27539;SDS011;15906;52.046;4.724;2023-06-22T12:39:35;38.20;;;30.40;;
27539;SDS011;15906;52.046;4.724;2023-06-22T12:42:00;32.85;;;27.17;;
27539;SDS011;15906;52.046;4.724;2023-06-22T12:44:26;35.42;;;28.17;;
27539;SDS011;15906;52.046;4.724;2023-06-22T12:46:51;34.25;;;27.98;;
27539;SDS011;15906;52.046;4.724;2023-06-22T12:49:17;33.08;;;27.95;;
27539;SDS011;15906;52.046;4.724;2023-06-22T12:51:43;35.60;;;29.00;;
27539;SDS011;15906;52.046;4.724;2023-06-22T12:54:09;36.60;;;29.33;;
27539;SDS011;15906;52.046;4.724;2023-06-22T12:56:35;34.45;;;28.02;;
27539;SDS011;15906;52.046;4.724;2023-06-22T12:59:01;35.40;;;28.67;;
27539;SDS011;15906;52.046;4.724;2023-06-22T13:01:32;34.63;;;29.58;;
27539;SDS011;15906;52.046;4.724;2023-06-22T13:03:58;34.45;;;26.98;;
27539;SDS011;15906;52.046;4.724;2023-06-22T13:06:24;37.40;;;27.90;;
27539;SDS011;15906;52.046;4.724;2023-06-22T13:08:50;33.58;;;27.15;;
27539;SDS011;15906;52.046;4.724;2023-06-22T13:11:16;31.95;;;27.58;;
27539;SDS011;15906;52.046;4.724;2023-06-22T13:13:41;35.78;;;28.70;;
27539;SDS011;15906;52.046;4.724;2023-06-22T13:16:08;34.70;;;28.98;;
27539;SDS011;15906;52.046;4.724;2023-06-22T13:18:34;35.92;;;28.27;;
27539;SDS011;15906;52.046;4.724;2023-06-22T13:21:00;36.03;;;28.05;;
27539;SDS011;15906;52.046;4.724;2023-06-22T13:23:29;33.35;;;27.10;;
27539;SDS011;15906;52.046;4.724;2023-06-22T13:25:55;38.22;;;27.95;;
27539;SDS011;15906;52.046;4.724;2023-06-22T13:28:20;35.22;;;26.52;;
27539;SDS011;15906;52.046;4.724;2023-06-22T13:30:47;35.90;;;27.92;;
27539;SDS011;15906;52.046;4.724;2023-06-22T13:33:13;33.08;;;26.75;;
27539;SDS011;15906;52.046;4.724;2023-06-22T13:35:39;31.88;;;27.13;;
27539;SDS011;15906;52.046;4.724;2023-06-22T13:38:04;34.70;;;27.35;;
27539;SDS011;15906;52.046;4.724;2023-06-22T13:40:30;31.98;;;26.73;;
27539;SDS011;15906;52.046;4.724;2023-06-22T13:42:56;34.90;;;27.80;;
27539;SDS011;15906;52.046;4.724;2023-06-22T13:45:21;32.47;;;27.25;;
27539;SDS011;15906;52.046;4.724;2023-06-22T13:47:47;31.45;;;28.05;;
27539;SDS011;15906;52.046;4.724;2023-06-22T13:50:12;33.90;;;28.55;;
27539;SDS011;15906;52.046;4.724;2023-06-22T13:52:38;34.13;;;26.42;;
27539;SDS011;15906;52.046;4.724;2023-06-22T13:55:04;38.47;;;28.10;;
27539;SDS011;15906;52.046;4.724;2023-06-22T13:57:31;36.65;;;26.38;;
27539;SDS011;15906;52.046;4.724;2023-06-22T13:59:58;33.03;;;27.15;;
27539;SDS011;15906;52.046;4.724;2023-06-22T14:02:25;33.08;;;28.38;;
27539;SDS011;15906;52.046;4.724;2023-06-22T14:04:51;37.38;;;27.98;;
27539;SDS011;15906;52.046;4.724;2023-06-22T14:07:17;31.60;;;27.77;;
27539;SDS011;15906;52.046;4.724;2023-06-22T14:09:44;30.40;;;26.65;;
27539;SDS011;15906;52.046;4.724;2023-06-22T14:12:10;29.58;;;23.48;;
27539;SDS011;15906;52.046;4.724;2023-06-22T14:14:36;28.55;;;23.52;;
27539;SDS011;15906;52.046;4.724;2023-06-22T14:17:01;26.95;;;22.77;;
27539;SDS011;15906;52.046;4.724;2023-06-22T14:19:28;23.42;;;19.15;;